Decoded Metar for UASK (KAMENOGORSK in KAZAKHSTAN) (IATA:N/A) | Meteo·Mobile Aviation Weather
aviador You're here:

UASK Decoded Metar

KAMENOGORSK in KAZAKHSTAN
Report Time2019-07-24 04:00:00
UTC Time2019-07-24 04:21:03
Flight Rules ifr IFR
Wind210° at 6 kt
W.Decomp.*RWY 12: 0.6 kt HW 6.0 kt RCW
Visibility3600 m
Phenomena:Light Shower Rain
Mist
Clouds:Broken CB 026 Hf
Overcast 053 Hf
Expected CloudBase > 400 ft AGL from Temp-Dew spread
Ceiling2,600 ft
Temp16°C (ISA +3)
Dew Point15°C (94% RH)
AAT15.5°C
QNH1004 hPa
Density Alt1,811 ft
Elevation938 ft
Report Wrong Elevation
Raw Report
METAR UASK 240400Z 21003MPS 3600 -SHRA BR BKN026CB OVC053 16/15 Q1004
R30/290350 NOSIG RMK QFE728/0971=

Extra information for UASK:More info

Metar Taf Metar & Taf Last 4 Metars F.Rules Stats Wind Profile Meteogram Temp Stats Airport Information Weather charts Add Link Nearby VenuesMetar ALERT Operation Metar Decoded Social comments